Time;durP1;ratioP1;P1;durP2;ratioP2;P2;SDS_P1;SDS_P2;PMS_P1;PMS_P2;Temp;Humidity;BMP_temperature;BMP_pressure;BME280_temperature;BME280_humidity;BME280_pressure;Samples;Min_cycle;Max_cycle;Signal;HPM_P1;HPM_P2
2022/09/24 00:01:53;;;;;;;8.07;7.27;;;11.30;1.00;;;;;;5077473;28;20445;-79
2022/09/24 00:04:23;;;;;;;7.80;7.20;;;11.20;1.00;;;;;;5084391;28;20452;-79
2022/09/24 00:06:49;;;;;;;6.90;6.33;;;11.40;1.00;;;;;;5083499;28;20474;-78
2022/09/24 00:09:20;;;;;;;9.10;8.30;;;11.20;1.00;;;;;;5084253;28;20526;-80
2022/09/24 00:11:48;;;;;;;8.80;8.03;;;11.20;1.00;;;;;;5078071;28;20830;-79
2022/09/24 00:14:15;;;;;;;9.07;7.60;;;11.20;1.00;;;;;;5077255;28;20467;-79
2022/09/24 00:16:44;;;;;;;13.80;8.53;;;11.10;1.00;;;;;;5077029;28;20445;-80
2022/09/24 00:19:12;;;;;;;7.90;7.23;;;11.10;1.00;;;;;;5077809;28;20445;-79
2022/09/24 00:21:40;;;;;;;9.30;7.83;;;11.10;1.00;;;;;;5079334;28;20448;-80
2022/09/24 00:24:09;;;;;;;12.73;8.87;;;11.10;1.00;;;;;;5080858;28;20497;-80
2022/09/24 00:26:50;;;;;;;8.40;7.60;;;11.10;1.00;;;;;;5080741;28;20440;-79
2022/09/24 00:29:19;;;;;;;8.80;8.10;;;11.00;1.00;;;;;;5082306;28;20532;-79
2022/09/24 00:31:47;;;;;;;7.90;7.10;;;11.00;1.00;;;;;;5082773;28;20532;-78
2022/09/24 00:34:14;;;;;;;9.23;8.40;;;11.00;1.00;;;;;;5086552;28;20441;-78
2022/09/24 00:36:41;;;;;;;8.80;8.00;;;11.10;1.00;;;;;;5091217;28;20429;-79
2022/09/24 00:39:08;;;;;;;9.23;8.40;;;11.00;1.00;;;;;;5089821;28;20443;-80
2022/09/24 00:41:37;;;;;;;9.00;8.20;;;10.90;1.00;;;;;;5091499;28;20446;-78
2022/09/24 00:44:37;;;;;;;8.73;8.03;;;10.90;1.00;;;;;;5088499;28;20506;-78
2022/09/24 00:49:49;;;;;;;8.70;7.97;;;10.80;1.00;;;;;;5092407;27;20518;-77
2022/09/24 00:52:18;;;;;;;9.70;8.80;;;10.80;1.00;;;;;;5091596;28;20440;-78
2022/09/24 00:54:45;;;;;;;10.73;8.97;;;10.80;4.90;;;;;;5091879;28;20562;-78
2022/09/24 00:57:12;;;;;;;9.73;8.50;;;10.80;13.50;;;;;;5095523;28;20454;-77
2022/09/24 00:59:41;;;;;;;11.07;8.90;;;10.80;2.70;;;;;;5097795;28;20440;-77
2022/09/24 01:02:07;;;;;;;9.77;8.93;;;10.80;1.00;;;;;;5093162;28;20942;-78
2022/09/24 01:04:34;;;;;;;17.97;10.50;;;10.90;1.00;;;;;;5093282;28;20444;-78
2022/09/24 01:07:02;;;;;;;9.97;9.17;;;10.80;1.00;;;;;;5093717;28;20444;-78
2022/09/24 01:09:29;;;;;;;10.10;9.07;;;10.80;1.00;;;;;;5093015;28;20480;-79
2022/09/24 01:12:06;;;;;;;10.60;9.50;;;10.80;1.00;;;;;;5093760;28;20448;-78
2022/09/24 01:14:54;;;;;;;9.10;8.10;;;10.80;36.10;;;;;;5093049;28;20451;-78
2022/09/24 01:17:29;;;;;;;9.37;8.47;;;10.80;26.60;;;;;;5098147;28;20425;-77
2022/09/24 01:20:20;;;;;;;8.30;7.50;;;10.70;3.90;;;;;;5097173;28;20428;-77
2022/09/24 01:23:03;;;;;;;9.33;8.43;;;10.80;7.50;;;;;;5095206;28;20436;-76
2022/09/24 01:25:40;;;;;;;8.80;8.00;;;10.80;2.90;;;;;;5090796;28;20914;-77
2022/09/24 01:28:25;;;;;;;9.10;8.23;;;10.80;2.00;;;;;;5091073;28;20483;-77
2022/09/24 01:30:59;;;;;;;9.83;8.27;;;10.80;1.00;;;;;;5091206;28;20483;-77
2022/09/24 01:33:28;;;;;;;10.00;9.00;;;10.80;1.00;;;;;;5091497;28;20578;-77
2022/09/24 01:36:00;;;;;;;9.37;8.37;;;10.80;1.00;;;;;;5091075;28;20483;-77
2022/09/24 01:38:29;;;;;;;8.40;7.70;;;10.80;1.00;;;;;;5090461;28;20468;-77
2022/09/24 01:41:02;;;;;;;8.27;7.57;;;10.80;1.00;;;;;;5095405;28;20451;-77
2022/09/24 01:43:29;;;;;;;9.83;8.03;;;10.70;1.00;;;;;;5101245;28;20440;-77
2022/09/24 01:46:01;;;;;;;8.37;7.67;;;10.80;1.00;;;;;;5101624;28;20519;-77
2022/09/24 01:48:29;;;;;;;8.73;8.03;;;10.80;1.00;;;;;;5095622;28;20900;-79
2022/09/24 01:51:01;;;;;;;7.70;7.00;;;10.80;1.00;;;;;;5091397;28;20822;-78
2022/09/24 01:53:33;;;;;;;8.93;8.03;;;10.80;1.00;;;;;;5090424;28;20880;-78
2022/09/24 01:56:05;;;;;;;8.37;7.43;;;10.80;1.00;;;;;;5090093;28;20432;-78
2022/09/24 01:58:36;;;;;;;7.80;7.10;;;10.80;1.00;;;;;;5089977;28;20472;-78
2022/09/24 02:01:08;;;;;;;9.70;8.90;;;10.80;1.00;;;;;;5076692;28;20472;-78
2022/09/24 02:03:40;;;;;;;8.40;7.63;;;10.90;1.00;;;;;;5076442;28;20840;-78
2022/09/24 02:06:14;;;;;;;10.40;8.30;;;10.90;1.00;;;;;;5076688;28;20441;-78
2022/09/24 02:08:43;;;;;;;8.70;8.00;;;10.90;1.00;;;;;;5076368;28;20488;-78
2022/09/24 02:11:13;;;;;;;9.73;7.97;;;10.90;1.00;;;;;;5076465;28;20449;-78
2022/09/24 02:13:43;;;;;;;9.20;7.70;;;11.00;1.00;;;;;;5076323;28;20448;-78
2022/09/24 02:16:15;;;;;;;7.60;7.00;;;11.00;1.00;;;;;;5076549;28;20426;-78
2022/09/24 02:18:46;;;;;;;8.57;7.77;;;11.00;1.00;;;;;;5076700;28;20442;-78
2022/09/24 02:21:15;;;;;;;8.03;7.23;;;11.00;1.00;;;;;;5077145;28;20841;-79
2022/09/24 02:23:47;;;;;;;8.37;7.57;;;11.00;1.00;;;;;;5078745;28;20939;-78
2022/09/24 02:26:14;;;;;;;8.60;7.40;;;11.00;1.00;;;;;;5077192;28;20429;-79
2022/09/24 02:28:41;;;;;;;8.93;8.03;;;11.00;1.00;;;;;;5076890;28;20480;-78
2022/09/24 02:31:12;;;;;;;10.77;8.90;;;11.00;1.00;;;;;;5076717;28;20814;-78
2022/09/24 02:36:28;;;;;;;9.03;8.17;;;11.00;1.00;;;;;;5075865;28;20856;-78
2022/09/24 02:38:55;;;;;;;9.00;8.20;;;11.00;1.00;;;;;;5076008;28;20461;-78
2022/09/24 02:41:23;;;;;;;10.27;8.50;;;11.00;1.00;;;;;;5076448;28;20528;-78
2022/09/24 02:43:50;;;;;;;11.50;8.37;;;11.00;1.00;;;;;;5075264;28;20532;-76
2022/09/24 02:46:16;;;;;;;9.40;8.47;;;11.00;1.00;;;;;;5076472;28;20502;-78
2022/09/24 02:48:45;;;;;;;10.93;9.33;;;10.90;1.00;;;;;;5075865;28;20485;-79
2022/09/24 02:51:11;;;;;;;9.30;8.03;;;11.00;1.00;;;;;;5076269;28;20448;-78
2022/09/24 02:53:38;;;;;;;8.87;8.07;;;11.00;1.00;;;;;;5076295;28;20514;-78
2022/09/24 02:56:05;;;;;;;9.40;8.43;;;11.00;1.00;;;;;;5076175;28;20444;-78
2022/09/24 02:58:32;;;;;;;10.03;9.03;;;11.00;1.00;;;;;;5075814;28;20465;-78
2022/09/24 03:00:58;;;;;;;12.37;7.63;;;11.00;1.00;;;;;;5076370;28;20826;-78
2022/09/24 03:03:25;;;;;;;7.67;7.07;;;11.00;1.00;;;;;;5075994;28;20888;-78
2022/09/24 03:05:53;;;;;;;10.93;9.67;;;11.00;1.00;;;;;;5075248;28;20448;-78
2022/09/24 03:08:20;;;;;;;11.90;9.20;;;11.00;1.00;;;;;;5075618;28;20978;-78
2022/09/24 03:10:50;;;;;;;8.10;6.97;;;11.00;1.00;;;;;;5075177;28;20813;-78
2022/09/24 03:13:17;;;;;;;9.70;8.90;;;11.00;1.00;;;;;;5075159;28;20830;-79
2022/09/24 03:15:45;;;;;;;9.70;8.70;;;11.00;1.00;;;;;;5076285;28;20536;-78
2022/09/24 03:18:11;;;;;;;10.47;9.47;;;11.10;1.00;;;;;;5075483;28;20514;-79
2022/09/24 03:20:38;;;;;;;9.50;8.60;;;11.10;1.00;;;;;;5075862;28;20453;-78
2022/09/24 03:23:06;;;;;;;8.63;7.90;;;11.00;10.50;;;;;;5075320;28;20449;-79
2022/09/24 03:25:33;;;;;;;9.60;8.67;;;11.00;10.10;;;;;;5075433;28;20441;-78
2022/09/24 03:28:00;;;;;;;8.40;7.60;;;11.20;10.80;;;;;;5083166;28;20465;-77
2022/09/24 03:33:11;;;;;;;11.50;9.50;;;11.10;1.00;;;;;;5085913;28;20400;-77
2022/09/24 03:35:37;;;;;;;10.13;8.87;;;11.20;1.00;;;;;;5084079;28;20449;-77
2022/09/24 03:38:05;;;;;;;9.40;8.03;;;11.10;1.00;;;;;;5083536;28;20530;-77
2022/09/24 03:40:32;;;;;;;10.83;8.77;;;11.00;1.00;;;;;;5082765;28;20444;-77
2022/09/24 03:42:58;;;;;;;8.90;8.03;;;11.00;1.00;;;;;;5077079;28;20449;-77
2022/09/24 03:45:25;;;;;;;9.33;8.57;;;11.00;1.00;;;;;;5074348;28;20779;-77
2022/09/24 03:47:52;;;;;;;9.63;8.70;;;11.00;3.30;;;;;;5073700;28;20520;-77
2022/09/24 03:50:19;;;;;;;9.30;8.23;;;10.90;29.30;;;;;;5074370;28;20480;-77
2022/09/24 03:52:45;;;;;;;9.80;8.97;;;10.90;27.20;;;;;;5074220;28;20445;-77
2022/09/24 03:55:14;;;;;;;10.43;9.47;;;10.80;37.20;;;;;;5074311;28;20943;-77
2022/09/24 03:57:40;;;;;;;9.43;8.53;;;10.90;41.80;;;;;;5080344;28;20460;-77
2022/09/24 04:00:08;;;;;;;8.33;7.53;;;10.90;28.40;;;;;;5084658;28;20449;-77
2022/09/24 04:02:35;;;;;;;9.00;8.10;;;10.90;15.30;;;;;;5082780;28;20461;-77
2022/09/24 04:05:01;;;;;;;9.63;8.73;;;10.90;20.10;;;;;;5075635;28;20504;-77
2022/09/24 04:07:28;;;;;;;11.77;9.80;;;10.60;96.20;;;;;;5075747;28;20449;-77
2022/09/24 04:09:55;;;;;;;8.80;8.10;;;10.80;54.60;;;;;;5076192;28;20476;-77
2022/09/24 04:12:23;;;;;;;9.70;8.57;;;10.80;29.50;;;;;;5077988;28;20502;-78
2022/09/24 04:14:50;;;;;;;9.53;8.63;;;10.80;55.60;;;;;;5080579;28;20440;-77
2022/09/24 04:17:16;;;;;;;10.43;9.30;;;10.90;99.90;;;;;;5077156;28;20499;-78
2022/09/24 04:19:43;;;;;;;10.93;9.50;;;10.80;88.90;;;;;;5075064;28;20528;-78
2022/09/24 04:22:10;;;;;;;10.37;8.60;;;10.80;79.50;;;;;;5074354;28;20491;-78
2022/09/24 04:24:37;;;;;;;9.70;8.80;;;10.90;90.40;;;;;;5074272;28;20448;-78
2022/09/24 04:27:03;;;;;;;11.67;8.97;;;10.90;31.40;;;;;;5074558;28;20448;-78
2022/09/24 04:29:31;;;;;;;10.20;9.30;;;10.80;30.10;;;;;;5074473;28;20527;-78
2022/09/24 04:31:58;;;;;;;8.97;8.17;;;10.80;99.90;;;;;;5075069;28;20474;-78
2022/09/24 04:34:25;;;;;;;9.70;8.90;;;10.80;99.90;;;;;;5074916;28;20448;-78
2022/09/24 04:36:51;;;;;;;10.50;9.30;;;10.80;99.90;;;;;;5074753;28;20468;-78
2022/09/24 04:39:21;;;;;;;10.13;9.10;;;;;;;;;;5075222;28;20624;-77
2022/09/24 04:41:47;;;;;;;11.50;9.40;;;10.80;99.90;;;;;;5074464;28;20457;-77
2022/09/24 04:44:14;;;;;;;9.97;9.07;;;10.80;99.90;;;;;;5074500;28;20425;-77
2022/09/24 04:46:42;;;;;;;9.57;8.07;;;10.80;99.90;;;;;;5073854;28;20452;-77
2022/09/24 04:49:09;;;;;;;9.03;7.83;;;10.80;99.90;;;;;;5073276;28;20491;-77
2022/09/24 04:51:35;;;;;;;10.20;9.20;;;10.80;99.90;;;;;;5074350;28;20955;-77
2022/09/24 04:54:03;;;;;;;9.37;8.43;;;10.80;99.90;;;;;;5073746;28;20444;-77
2022/09/24 04:56:30;;;;;;;9.27;8.57;;;10.80;99.90;;;;;;5074251;28;20427;-77
2022/09/24 04:58:56;;;;;;;9.53;8.63;;;10.70;99.90;;;;;;5074208;28;20465;-78
2022/09/24 05:01:24;;;;;;;12.87;9.50;;;10.90;37.10;;;;;;5073759;28;20931;-78
2022/09/24 05:03:52;;;;;;;9.30;8.43;;;10.80;1.00;;;;;;5074034;28;20456;-78
2022/09/24 05:06:19;;;;;;;9.77;8.90;;;10.80;19.20;;;;;;5074003;28;20914;-78
2022/09/24 05:08:45;;;;;;;10.23;9.23;;;10.80;40.50;;;;;;5074201;28;20522;-78
2022/09/24 05:11:12;;;;;;;9.23;8.33;;;10.80;86.10;;;;;;5074223;28;20452;-78
2022/09/24 05:13:39;;;;;;;9.70;8.30;;;10.70;65.40;;;;;;5073670;28;20484;-78
2022/09/24 05:16:06;;;;;;;10.93;8.87;;;10.70;75.50;;;;;;5073580;28;20448;-78
2022/09/24 05:18:33;;;;;;;9.10;8.40;;;10.70;64.20;;;;;;5073988;28;20464;-77
2022/09/24 05:21:01;;;;;;;9.47;8.57;;;10.80;64.30;;;;;;5073057;28;20445;-77
2022/09/24 05:23:27;;;;;;;8.60;7.90;;;10.80;10.70;;;;;;5073380;28;20931;-76
2022/09/24 05:28:36;;;;;;;10.02;9.07;;;10.80;1.00;;;;;;5058894;28;20475;-77
2022/09/24 05:31:03;;;;;;;9.40;8.50;;;10.90;1.00;;;;;;5079251;28;20242;-77
2022/09/24 05:33:30;;;;;;;9.70;8.70;;;10.90;1.00;;;;;;5075068;28;20506;-77
2022/09/24 05:35:57;;;;;;;9.57;8.73;;;10.90;1.00;;;;;;5084166;28;20444;-77
2022/09/24 05:38:25;;;;;;;9.60;8.70;;;10.90;1.00;;;;;;5086420;28;20534;-77
2022/09/24 05:40:53;;;;;;;9.00;8.20;;;10.90;1.00;;;;;;5084675;28;20445;-76
2022/09/24 05:43:20;;;;;;;9.27;8.30;;;10.90;1.00;;;;;;5080119;28;20445;-77
2022/09/24 05:45:49;;;;;;;9.23;8.43;;;10.90;18.10;;;;;;5078237;28;20484;-77
2022/09/24 05:48:16;;;;;;;9.67;8.77;;;11.00;31.40;;;;;;5078112;28;20848;-77
2022/09/24 05:50:43;;;;;;;9.77;8.77;;;11.00;39.90;;;;;;5077047;28;20484;-77
2022/09/24 05:53:10;;;;;;;10.70;9.73;;;11.00;46.80;;;;;;5077204;28;20445;-77
2022/09/24 05:55:38;;;;;;;10.03;8.93;;;11.00;52.60;;;;;;5077276;28;20865;-77
2022/09/24 05:58:05;;;;;;;11.00;10.00;;;11.00;61.80;;;;;;5076656;28;20979;-77
2022/09/24 06:00:32;;;;;;;11.03;8.90;;;11.00;99.90;;;;;;5077344;28;20833;-77
2022/09/24 06:03:04;;;;;;;9.97;9.07;;;11.00;70.20;;;;;;5077013;28;20498;-78
2022/09/24 06:05:31;;;;;;;10.40;9.40;;;11.00;92.10;;;;;;5077376;28;20455;-78
2022/09/24 06:07:57;;;;;;;10.07;9.17;;;11.00;73.00;;;;;;5077554;28;20916;-77
2022/09/24 06:10:24;;;;;;;10.67;9.40;;;10.90;99.90;;;;;;5076791;28;20498;-78
2022/09/24 06:12:53;;;;;;;10.90;9.87;;;10.90;99.90;;;;;;5077301;28;20535;-78
2022/09/24 06:15:21;;;;;;;10.23;9.33;;;11.00;99.90;;;;;;5077683;28;20445;-77
2022/09/24 06:17:48;;;;;;;10.83;9.83;;;11.10;94.40;;;;;;5076243;28;20469;-78
2022/09/24 06:20:14;;;;;;;10.10;9.00;;;11.10;50.60;;;;;;5076920;28;20445;-77
2022/09/24 06:22:41;;;;;;;10.03;9.03;;;11.10;30.10;;;;;;5077755;28;20444;-78
2022/09/24 06:25:09;;;;;;;10.13;9.13;;;11.10;82.70;;;;;;5078000;28;20448;-78
2022/09/24 06:27:36;;;;;;;12.67;10.37;;;11.10;99.90;;;;;;5085288;28;20499;-77
2022/09/24 06:30:04;;;;;;;9.90;9.10;;;11.00;99.90;;;;;;5092233;28;20485;-78
2022/09/24 06:32:31;;;;;;;11.00;9.90;;;11.10;92.60;;;;;;5091289;28;20463;-78
2022/09/24 06:34:58;;;;;;;11.87;9.60;;;11.00;99.90;;;;;;5085367;28;20448;-78
2022/09/24 06:37:25;;;;;;;10.53;9.53;;;12.60;99.90;;;;;;5080083;28;20939;-78
2022/09/24 06:39:51;;;;;;;10.30;9.30;;;11.00;99.90;;;;;;5077572;28;21013;-78
2022/09/24 06:42:19;;;;;;;11.23;10.03;;;11.10;99.90;;;;;;5077318;28;20445;-78
2022/09/24 06:44:47;;;;;;;11.00;9.93;;;11.20;99.90;;;;;;5077277;28;20448;-79
2022/09/24 06:47:15;;;;;;;10.67;9.57;;;11.20;99.90;;;;;;5077278;28;20445;-78
2022/09/24 06:49:41;;;;;;;10.20;9.30;;;11.30;89.30;;;;;;5088602;22;20464;-80
2022/09/24 06:52:08;;;;;;;10.70;9.77;;;11.40;64.30;;;;;;5061219;28;20448;-79
2022/09/24 06:54:35;;;;;;;10.40;9.33;;;11.40;8.10;;;;;;5059605;28;20456;-79
2022/09/24 06:57:03;;;;;;;10.20;9.30;;;11.30;19.60;;;;;;5058226;28;20438;-79
2022/09/24 06:59:29;;;;;;;10.13;9.23;;;11.40;13.40;;;;;;5058320;28;20227;-80
2022/09/24 07:01:58;;;;;;;14.83;10.70;;;11.40;15.00;;;;;;5059197;28;20963;-78
2022/09/24 07:04:26;;;;;;;10.23;9.23;;;11.40;15.70;;;;;;5059722;28;20948;-79
2022/09/24 07:09:40;;;;;;;9.80;8.90;;;11.50;17.80;;;;;;5061578;28;20535;-79
2022/09/24 07:12:07;;;;;;;10.00;9.10;;;11.40;1.00;;;;;;5061483;28;20503;-78
2022/09/24 07:14:34;;;;;;;10.67;9.77;;;11.40;1.00;;;;;;5062287;28;20207;-80
2022/09/24 07:17:01;;;;;;;10.70;9.40;;;11.40;1.00;;;;;;5059183;28;20450;-78
2022/09/24 07:19:29;;;;;;;11.27;10.07;;;11.40;2.50;;;;;;5058596;28;20444;-79
2022/09/24 07:21:56;;;;;;;12.27;11.07;;;11.50;1.00;;;;;;5058679;28;20199;-81
2022/09/24 07:24:23;;;;;;;10.73;9.70;;;11.50;1.00;;;;;;5057440;28;20452;-81
2022/09/24 07:26:50;;;;;;;12.33;9.57;;;11.60;1.00;;;;;;5057524;28;20446;-80
2022/09/24 07:29:17;;;;;;;11.83;9.50;;;11.90;1.00;;;;;;5058361;28;20469;-80
2022/09/24 07:31:44;;;;;;;12.63;9.70;;;11.70;1.00;;;;;;5058947;28;20521;-79
2022/09/24 07:34:10;;;;;;;14.10;10.30;;;11.70;1.00;;;;;;5058859;28;20506;-79
2022/09/24 07:36:38;;;;;;;10.63;9.63;;;11.70;1.00;;;;;;5058836;28;20464;-78
2022/09/24 07:39:05;;;;;;;10.07;9.17;;;11.70;1.00;;;;;;5058099;28;20461;-80
2022/09/24 07:41:32;;;;;;;13.33;9.90;;;11.70;1.00;;;;;;5058085;28;20449;-79
2022/09/24 07:44:00;;;;;;;10.80;9.80;;;12.10;1.00;;;;;;5058813;28;20454;-79
2022/09/24 07:46:26;;;;;;;11.30;10.23;;;11.80;1.00;;;;;;5058513;28;20484;-79
2022/09/24 07:48:54;;;;;;;11.07;10.10;;;11.80;1.00;;;;;;5058025;28;20523;-80
2022/09/24 07:51:21;;;;;;;10.60;9.60;;;11.80;1.00;;;;;;5058641;28;20500;-79
2022/09/24 07:53:49;;;;;;;10.90;9.90;;;11.90;1.00;;;;;;5057567;28;20454;-79
2022/09/24 07:56:16;;;;;;;11.07;9.93;;;11.80;99.90;;;;;;5059319;28;20823;-80
2022/09/24 07:58:43;;;;;;;11.30;10.40;;;12.00;99.90;;;;;;5058785;28;20548;-79
2022/09/24 08:01:10;;;;;;;12.10;10.67;;;11.90;99.90;;;;;;5058738;28;20936;-79
2022/09/24 08:03:39;;;;;;;10.73;9.67;;;12.00;99.90;;;;;;5056446;28;20533;-79
2022/09/24 08:06:06;;;;;;;10.70;9.60;;;12.00;1.00;;;;;;5058045;28;20545;-79
2022/09/24 08:08:35;;;;;;;10.23;7.90;;;12.00;99.90;;;;;;5058949;28;20469;-80
2022/09/24 08:11:05;;;;;;;11.57;10.40;;;12.00;99.90;;;;;;5062218;28;20477;-80
2022/09/24 08:13:32;;;;;;;10.57;9.27;;;12.00;1.00;;;;;;5062352;28;20489;-80
2022/09/24 08:15:59;;;;;;;11.10;10.10;;;12.00;1.00;;;;;;5058224;28;20449;-79
2022/09/24 08:18:26;;;;;;;11.07;10.13;;;12.10;99.90;;;;;;5057749;28;20493;-79
2022/09/24 08:20:53;;;;;;;11.83;10.53;;;12.10;1.00;;;;;;5057434;28;20467;-79
2022/09/24 08:23:20;;;;;;;22.97;10.70;;;12.20;1.00;;;;;;5056942;28;20951;-80
2022/09/24 08:25:46;;;;;;;11.60;10.50;;;12.30;1.00;;;;;;5057276;28;20481;-82
2022/09/24 08:28:15;;;;;;;10.23;9.33;;;12.30;1.00;;;;;;5060464;28;20465;-80
2022/09/24 08:30:43;;;;;;;12.03;9.97;;;12.30;99.90;;;;;;5059077;28;20921;-79
2022/09/24 08:33:10;;;;;;;13.63;11.73;;;12.30;99.90;;;;;;5057025;28;20453;-79
2022/09/24 08:35:38;;;;;;;25.97;19.87;;;12.30;99.90;;;;;;5058302;28;20450;-79
2022/09/24 08:38:05;;;;;;;12.10;11.00;;;12.40;1.00;;;;;;5058021;28;20788;-80
2022/09/24 08:40:38;;;;;;;12.80;11.20;;;12.40;1.00;;;;;;5058410;28;20499;-79
2022/09/24 08:43:15;;;;;;;11.27;10.17;;;12.50;99.90;;;;;;5057936;28;20430;-78
2022/09/24 08:48:38;;;;;;;13.10;10.87;;;12.50;99.90;;;;;;5064639;28;20464;-77
2022/09/24 08:51:11;;;;;;;11.73;10.63;;;12.60;99.90;;;;;;5065951;28;20470;-78
2022/09/24 08:53:47;;;;;;;12.00;11.00;;;12.60;1.00;;;;;;5065686;28;20819;-79
2022/09/24 08:56:18;;;;;;;11.30;10.20;;;12.70;99.90;;;;;;5062788;28;20450;-78
2022/09/24 08:58:48;;;;;;;18.50;11.73;;;12.80;99.90;;;;;;5058364;28;20991;-81
2022/09/24 09:01:26;;;;;;;13.40;11.63;;;12.90;1.00;;;;;;5058472;28;20446;-80
2022/09/24 09:03:56;;;;;;;12.60;11.40;;;12.90;1.00;;;;;;5056410;28;20896;-80
2022/09/24 09:06:45;;;;;;;12.37;11.17;;;13.00;1.00;;;;;;5057420;28;20433;-80
2022/09/24 09:09:15;;;;;;;11.80;10.53;;;13.10;99.90;;;;;;5053039;28;20481;-80
2022/09/24 09:11:46;;;;;;;11.80;10.60;;;13.10;1.00;;;;;;5060089;28;20971;-79
2022/09/24 09:14:17;;;;;;;11.60;10.50;;;13.10;1.00;;;;;;5060533;28;20441;-79
2022/09/24 09:16:49;;;;;;;11.50;10.40;;;13.20;1.00;;;;;;5058836;28;20582;-79
2022/09/24 09:19:17;;;;;;;11.80;10.67;;;13.30;13.20;;;;;;5061586;28;20549;-79
2022/09/24 09:21:51;;;;;;;11.93;10.80;;;13.30;1.00;;;;;;5060965;28;20567;-80
2022/09/24 09:24:22;;;;;;;11.70;10.47;;;13.40;99.90;;;;;;5062859;28;20891;-78
2022/09/24 09:26:53;;;;;;;12.63;11.50;;;13.40;99.90;;;;;;5062176;28;20433;-78
2022/09/24 09:29:20;;;;;;;10.23;9.30;;;13.30;1.00;;;;;;5061895;28;20476;-79
2022/09/24 09:31:59;;;;;;;11.30;9.50;;;13.50;1.00;;;;;;5064497;28;20833;-79
2022/09/24 09:34:40;;;;;;;10.90;9.90;;;13.30;1.00;;;;;;5060095;28;20806;-80
2022/09/24 09:37:14;;;;;;;12.20;11.10;;;13.40;1.00;;;;;;5067757;28;20184;-80
2022/09/24 09:39:49;;;;;;;12.03;10.70;;;13.50;99.90;;;;;;5064515;28;20469;-79
2022/09/24 09:42:28;;;;;;;10.37;9.40;;;13.50;99.90;;;;;;5070806;28;20547;-79
2022/09/24 09:44:55;;;;;;;10.93;9.93;;;13.50;1.00;;;;;;5073573;28;20426;-78
2022/09/24 09:47:32;;;;;;;10.33;9.30;;;13.60;99.90;;;;;;5068140;28;20437;-79
2022/09/24 09:50:05;;;;;;;12.73;9.90;;;13.70;1.00;;;;;;5068400;28;20474;-78
2022/09/24 09:52:36;;;;;;;9.60;8.70;;;13.80;99.90;;;;;;5069512;28;20426;-78
2022/09/24 09:55:04;;;;;;;10.27;9.20;;;13.90;1.00;;;;;;5067954;28;20456;-79
2022/09/24 09:57:31;;;;;;;11.10;9.70;;;;;;;;;;5067170;28;20473;-79
2022/09/24 09:59:58;;;;;;;11.13;9.70;;;13.90;99.90;;;;;;5067707;28;20488;-77
2022/09/24 10:02:30;;;;;;;11.10;9.83;;;14.00;39.50;;;;;;5063916;28;20443;-78
2022/09/24 10:04:58;;;;;;;10.73;9.63;;;14.00;99.90;;;;;;5063147;28;20437;-80
2022/09/24 10:07:25;;;;;;;9.67;8.60;;;14.00;1.00;;;;;;5061697;28;20855;-79
2022/09/24 10:10:16;;;;;;;9.67;8.87;;;14.00;1.00;;;;;;5060980;28;20465;-78
2022/09/24 10:12:43;;;;;;;10.50;9.57;;;14.20;99.90;;;;;;5061808;28;20430;-79
2022/09/24 10:15:17;;;;;;;10.80;9.63;;;14.30;99.90;;;;;;5062436;28;20449;-78
2022/09/24 10:17:48;;;;;;;11.07;9.67;;;14.60;99.90;;;;;;5064480;28;20445;-79
2022/09/24 10:20:18;;;;;;;10.73;9.73;;;14.40;99.90;;;;;;5062900;28;20445;-79
2022/09/24 10:22:49;;;;;;;10.33;9.40;;;14.50;1.00;;;;;;5061437;28;20456;-80
2022/09/24 10:25:25;;;;;;;11.63;9.97;;;14.60;1.00;;;;;;5066718;28;20429;-77
2022/09/24 10:27:53;;;;;;;9.53;8.73;;;14.60;1.00;;;;;;5068076;28;20525;-77
2022/09/24 10:30:34;;;;;;;9.80;9.00;;;14.60;1.00;;;;;;5065781;28;20507;-81
2022/09/24 10:33:04;;;;;;;11.20;10.10;;;14.90;99.90;;;;;;5064218;28;20429;-79
2022/09/24 10:35:34;;;;;;;10.60;9.63;;;14.70;72.70;;;;;;5062177;28;20445;-81
2022/09/24 10:38:02;;;;;;;10.00;9.00;;;14.70;1.00;;;;;;5062980;28;20482;-81
2022/09/24 10:40:31;;;;;;;9.93;9.10;;;14.80;99.90;;;;;;5062656;28;20500;-79
2022/09/24 10:42:59;;;;;;;9.43;8.17;;;14.90;99.90;;;;;;5060687;28;20456;-81
2022/09/24 10:45:35;;;;;;;9.47;8.57;;;15.00;99.90;;;;;;5058771;28;20453;-80
2022/09/24 10:48:10;;;;;;;9.00;8.10;;;14.70;99.90;;;;;;5058794;28;20896;-80
2022/09/24 10:50:45;;;;;;;9.67;8.77;;;15.10;99.90;;;;;;5057797;28;20433;-79
2022/09/24 10:53:14;;;;;;;10.00;9.03;;;15.10;1.00;;;;;;5057392;28;20433;-79
2022/09/24 10:55:47;;;;;;;8.90;8.00;;;15.10;1.00;;;;;;5056927;28;20417;-80
2022/09/24 10:58:40;;;;;;;8.67;7.60;;;15.10;1.00;;;;;;5058585;28;20813;-79
2022/09/24 11:01:16;;;;;;;9.53;8.53;;;15.20;1.00;;;;;;5063151;28;20449;-77
2022/09/24 11:04:19;;;;;;;9.80;8.10;;;15.30;99.90;;;;;;5062885;28;20437;-79
2022/09/24 11:07:13;;;;;;;8.63;7.93;;;15.40;1.00;;;;;;5060197;28;20452;-80
2022/09/24 11:09:47;;;;;;;9.03;7.97;;;15.50;1.00;;;;;;5059587;28;20564;-80
2022/09/24 11:12:25;;;;;;;8.63;7.73;;;15.40;99.90;;;;;;5059365;28;20905;-80
2022/09/24 11:15:03;;;;;;;8.70;7.90;;;15.30;99.90;;;;;;5061042;28;20432;-81
2022/09/24 11:17:36;;;;;;;10.47;9.43;;;15.40;99.90;;;;;;5058832;28;20432;-80
2022/09/24 11:20:20;;;;;;;9.87;8.97;;;15.60;7.90;;;;;;5059579;28;20783;-80
2022/09/24 11:23:04;;;;;;;8.87;8.07;;;15.60;99.90;;;;;;5058642;28;20924;-80
2022/09/24 11:25:39;;;;;;;9.83;8.27;;;15.70;1.00;;;;;;5058583;28;20460;-81
2022/09/24 11:28:37;;;;;;;9.10;7.70;;;15.70;1.00;;;;;;5056784;28;20519;-80
2022/09/24 11:31:12;;;;;;;9.30;8.50;;;15.90;6.80;;;;;;5058789;28;20469;-80
2022/09/24 11:34:04;;;;;;;11.60;9.90;;;15.90;99.90;;;;;;5060489;28;20437;-79
2022/09/24 11:36:48;;;;;;;10.10;9.10;;;16.00;99.90;;;;;;5060703;28;20426;-79
2022/09/24 11:39:30;;;;;;;10.43;9.00;;;16.00;1.00;;;;;;5059839;28;20473;-79
2022/09/24 11:42:07;;;;;;;9.67;8.50;;;16.00;99.90;;;;;;5059608;28;20716;-80
2022/09/24 11:44:59;;;;;;;9.00;8.30;;;16.10;1.00;;;;;;5060418;28;20433;-79
2022/09/24 11:47:37;;;;;;;7.87;7.07;;;16.00;1.00;;;;;;5057792;28;20859;-80
2022/09/24 11:50:20;;;;;;;9.47;8.50;;;16.00;77.90;;;;;;5058180;28;20432;-80
2022/09/24 11:52:55;;;;;;;9.37;8.47;;;16.00;99.90;;;;;;5058245;28;20466;-80
2022/09/24 11:55:24;;;;;;;9.83;8.90;;;16.00;99.90;;;;;;5056954;28;20483;-80
2022/09/24 11:57:57;;;;;;;8.23;7.57;;;16.20;1.00;;;;;;5060482;28;20778;-81
2022/09/24 12:00:28;;;;;;;9.13;8.23;;;15.90;1.00;;;;;;5059831;28;20839;-82
2022/09/24 12:02:59;;;;;;;9.37;8.33;;;15.70;1.00;;;;;;5060882;28;20446;-80
2022/09/24 12:05:30;;;;;;;237.33;70.43;;;15.80;1.00;;;;;;5058313;28;20445;-80
2022/09/24 12:08:03;;;;;;;44.83;19.47;;;15.70;99.90;;;;;;5058996;28;20839;-80
2022/09/24 12:10:37;;;;;;;18.07;11.87;;;15.80;99.90;;;;;;5059010;28;20438;-80
2022/09/24 12:13:17;;;;;;;9.53;7.40;;;15.80;1.00;;;;;;5058822;28;20466;-81
2022/09/24 12:15:48;;;;;;;13.20;8.80;;;15.80;15.10;;;;;;5057504;28;20849;-78
2022/09/24 12:18:20;;;;;;;24.70;12.07;;;15.70;1.00;;;;;;5057501;28;20831;-79
2022/09/24 12:20:51;;;;;;;18.50;11.57;;;15.80;1.00;;;;;;5058253;28;20460;-81
2022/09/24 12:23:26;;;;;;;18.20;11.03;;;15.80;1.00;;;;;;5060883;28;20436;-78
2022/09/24 12:25:55;;;;;;;8.87;7.97;;;15.80;1.00;;;;;;5060199;28;20460;-79
2022/09/24 12:33:57;;;;;;;8.90;8.07;;;15.80;99.90;;;;;;5057337;28;21009;-80
2022/09/24 12:36:49;;;;;;;9.00;8.27;;;15.90;1.00;;;;;;5057665;28;20430;-80
2022/09/24 12:39:22;;;;;;;7.50;6.93;;;16.30;99.90;;;;;;5057638;28;20469;-80
2022/09/24 12:41:55;;;;;;;9.43;7.83;;;16.00;99.90;;;;;;5056702;28;20438;-80
2022/09/24 12:44:30;;;;;;;9.63;8.60;;;16.10;99.90;;;;;;5057169;28;20426;-79
2022/09/24 12:46:58;;;;;;;8.60;7.87;;;16.10;1.00;;;;;;5057278;28;20452;-79
2022/09/24 12:49:31;;;;;;;8.87;8.07;;;16.20;61.50;;;;;;5081137;22;20485;-76
2022/09/24 12:52:00;;;;;;;9.27;7.63;;;16.10;1.00;;;;;;5074465;28;20963;-77
2022/09/24 12:54:30;;;;;;;9.77;8.87;;;16.10;99.90;;;;;;5074641;28;20456;-77
2022/09/24 12:57:09;;;;;;;9.10;8.27;;;16.20;99.90;;;;;;5075379;28;20425;-77
2022/09/24 12:59:48;;;;;;;8.13;7.43;;;16.10;1.00;;;;;;5074504;28;20460;-77
2022/09/24 13:02:17;;;;;;;8.20;7.40;;;16.10;2.60;;;;;;5075780;28;20432;-77
2022/09/24 13:04:49;;;;;;;9.60;8.70;;;16.00;1.00;;;;;;5076871;28;20532;-78
2022/09/24 13:07:34;;;;;;;8.80;8.00;;;16.10;94.80;;;;;;5075070;28;20432;-78
2022/09/24 13:10:23;;;;;;;8.67;7.87;;;16.10;99.90;;;;;;5074469;28;20469;-78
2022/09/24 13:12:49;;;;;;;7.87;7.17;;;16.10;1.00;;;;;;5074847;28;20464;-79
2022/09/24 13:15:27;;;;;;;8.10;7.40;;;16.00;1.00;;;;;;5073826;28;20453;-78
2022/09/24 13:18:03;;;;;;;14.53;12.70;;;16.00;1.00;;;;;;5074187;28;20934;-77
2022/09/24 13:20:31;;;;;;;9.10;8.37;;;15.90;1.00;;;;;;5074192;28;20446;-77
2022/09/24 13:22:59;;;;;;;11.10;7.87;;;16.00;99.90;;;;;;5075745;28;20452;-78
2022/09/24 13:25:28;;;;;;;9.13;8.23;;;16.00;1.00;;;;;;5075460;28;20456;-78